createdAt,value
2022-12-11T00:05:01.115Z,44.15
2022-12-11T00:10:05.069Z,43.25
2022-12-11T00:15:12.958Z,48.42
2022-12-11T00:20:19.833Z,44.75
2022-12-11T00:25:23.938Z,44.77
2022-12-11T00:30:30.235Z,45.33
2022-12-11T00:35:34.925Z,47.38
2022-12-11T00:40:38.309Z,38.37
2022-12-11T00:45:44.839Z,37.63
2022-12-11T00:50:48.799Z,41.30
2022-12-11T00:55:52.487Z,41.67
2022-12-11T01:01:06.355Z,41.60
2022-12-11T01:06:10.774Z,41.88
2022-12-11T01:11:15.678Z,40.65
2022-12-11T01:16:23.843Z,43.38
2022-12-11T01:21:27.552Z,41.85
2022-12-11T01:26:31.654Z,39.40
2022-12-11T01:31:38.248Z,41.55
2022-12-11T01:36:42.388Z,42.70
2022-12-11T01:41:46.203Z,48.90
2022-12-11T01:46:51.705Z,43.80
2022-12-11T01:51:59.476Z,45.05
2022-12-11T01:57:05.423Z,42.95
2022-12-11T02:02:12.094Z,45.53
2022-12-11T02:07:16.661Z,47.75
2022-12-11T02:12:22.923Z,35.72
2022-12-11T02:17:33.711Z,40.50
2022-12-11T02:23:00.833Z,39.85
2022-12-11T02:28:24.342Z,41.72
2022-12-11T02:33:31.284Z,30.67
2022-12-11T02:38:36.094Z,46.50
2022-12-11T02:43:40.889Z,41.50
2022-12-11T02:48:44.684Z,40.90
2022-12-11T02:53:48.048Z,38.80
2022-12-11T02:58:58.565Z,37.90
2022-12-11T03:04:03.741Z,35.75
2022-12-11T03:09:09.036Z,42.65
2022-12-11T03:14:14.948Z,34.88
2022-12-11T03:19:21.684Z,29.90
2022-12-11T03:24:28.087Z,27.33
2022-12-11T03:29:37.059Z,49.15
2022-12-11T03:34:44.046Z,41.53
2022-12-11T03:39:54.054Z,45.42
2022-12-11T03:44:58.697Z,34.45
2022-12-11T03:50:02.509Z,40.60
2022-12-11T03:55:09.205Z,45.47
2022-12-11T04:00:16.987Z,30.70
2022-12-11T04:05:21.025Z,40.00
2022-12-11T04:10:24.670Z,40.35
2022-12-11T04:15:30.755Z,39.43
2022-12-11T04:20:52.195Z,39.22
2022-12-11T04:25:55.719Z,32.50
2022-12-11T04:31:00.397Z,40.03
2022-12-11T04:36:06.658Z,29.58
2022-12-11T04:41:12.148Z,36.17
2022-12-11T04:46:18.204Z,37.53
2022-12-11T04:51:21.997Z,36.90
2022-12-11T04:56:25.740Z,36.87
2022-12-11T05:01:30.491Z,35.87
2022-12-11T05:06:33.705Z,39.13
2022-12-11T05:11:37.766Z,43.90
2022-12-11T05:16:43.821Z,41.58
2022-12-11T05:21:48.574Z,38.25
2022-12-11T05:26:55.111Z,23.57
2022-12-11T05:32:03.568Z,32.73
2022-12-11T05:37:07.491Z,28.50
2022-12-11T05:42:11.229Z,28.00
2022-12-11T05:47:16.753Z,36.57
2022-12-11T05:52:20.178Z,20.43
2022-12-11T05:57:24.039Z,25.23
2022-12-11T06:02:29.873Z,24.73
2022-12-11T06:07:39.113Z,23.10
2022-12-11T06:12:44.045Z,34.77
2022-12-11T06:17:48.943Z,25.87
2022-12-11T06:22:52.968Z,31.67
2022-12-11T06:27:56.203Z,23.03
2022-12-11T06:33:01.347Z,26.00
2022-12-11T06:38:06.215Z,37.63
2022-12-11T06:43:10.520Z,36.53
2022-12-11T06:48:15.850Z,40.93
2022-12-11T06:53:22.287Z,34.90
2022-12-11T06:58:25.626Z,36.17
2022-12-11T07:03:31.374Z,27.80
2022-12-11T07:08:35.193Z,27.77
2022-12-11T07:13:38.928Z,33.93
2022-12-11T07:18:45.804Z,24.40
2022-12-11T07:23:49.758Z,26.17
2022-12-11T07:28:53.221Z,34.57
2022-12-11T07:33:58.048Z,32.07
2022-12-11T07:39:01.802Z,31.97
2022-12-11T07:44:05.648Z,32.20
2022-12-11T07:49:10.878Z,35.08
2022-12-11T07:54:17.180Z,30.20
2022-12-11T07:59:21.197Z,30.83
2022-12-11T08:04:25.959Z,20.80
2022-12-11T08:09:29.068Z,25.08
2022-12-11T08:14:32.566Z,31.55
2022-12-11T08:19:37.761Z,31.73
2022-12-11T08:24:41.913Z,25.90
2022-12-11T08:29:48.058Z,28.50
2022-12-11T08:34:53.794Z,28.10
2022-12-11T08:39:57.419Z,26.88
2022-12-11T08:45:00.796Z,19.80
2022-12-11T08:50:06.064Z,27.05
2022-12-11T08:55:11.519Z,23.55
2022-12-11T09:00:16.359Z,21.25
2022-12-11T09:05:22.610Z,27.05
2022-12-11T09:10:30.404Z,23.45
2022-12-11T09:15:36.163Z,24.17
2022-12-11T09:20:41.164Z,20.73
2022-12-11T09:25:44.681Z,18.08
2022-12-11T09:30:48.176Z,27.30
2022-12-11T09:36:00.524Z,24.60
2022-12-11T09:41:04.851Z,26.08
2022-12-11T09:46:12.185Z,30.35
2022-12-11T09:51:21.013Z,29.98
2022-12-11T09:56:29.217Z,32.77
2022-12-11T10:01:38.466Z,26.27
2022-12-11T10:06:46.829Z,26.08
2022-12-11T10:12:00.565Z,25.65
2022-12-11T10:17:06.541Z,25.83
2022-12-11T10:22:17.037Z,24.08
2022-12-11T10:27:21.800Z,25.88
2022-12-11T10:32:25.995Z,25.58
2022-12-11T10:37:31.586Z,24.23
2022-12-11T10:42:35.131Z,25.02
2022-12-11T10:47:39.312Z,30.90
2022-12-11T10:52:45.991Z,30.40
2022-12-11T10:57:56.912Z,25.98
2022-12-11T11:03:00.215Z,32.13
2022-12-11T11:08:17.308Z,28.67
2022-12-11T11:13:22.025Z,32.88
2022-12-11T11:18:27.240Z,29.25
2022-12-11T11:23:32.162Z,33.72
2022-12-11T11:28:36.675Z,23.98
2022-12-11T11:33:48.232Z,24.90
2022-12-11T11:39:05.762Z,29.10
2022-12-11T11:44:11.760Z,29.45
2022-12-11T11:49:17.860Z,30.15
2022-12-11T11:54:29.655Z,28.88
2022-12-11T11:59:34.936Z,24.15
2022-12-11T12:04:39.343Z,28.08
2022-12-11T12:09:50.883Z,25.45
2022-12-11T12:15:00.660Z,27.50
2022-12-11T12:20:10.899Z,17.85
2022-12-11T12:25:20.778Z,25.20
2022-12-11T12:30:24.662Z,25.05
2022-12-11T12:35:35.554Z,19.02
2022-12-11T12:40:44.928Z,27.08
2022-12-11T12:45:51.987Z,24.90
2022-12-11T12:50:55.865Z,25.20
2022-12-11T12:56:00.998Z,26.33
2022-12-11T13:01:12.170Z,25.80
2022-12-11T13:06:16.846Z,24.92
2022-12-11T13:11:22.972Z,21.95
2022-12-11T13:16:28.884Z,25.52
2022-12-11T13:21:33.695Z,24.55
2022-12-11T13:26:40.055Z,25.75
2022-12-11T13:31:45.157Z,23.77
2022-12-11T13:36:49.559Z,23.83
2022-12-11T13:41:58.212Z,21.52
2022-12-11T13:47:03.039Z,20.13
2022-12-11T13:52:06.841Z,26.00
2022-12-11T13:57:18.147Z,20.85
2022-12-11T14:02:23.831Z,23.58
2022-12-11T14:07:29.901Z,15.57
2022-12-11T14:23:15.327Z,22.35
2022-12-11T14:28:20.097Z,28.27
2022-12-11T14:33:26.605Z,28.58
2022-12-11T14:38:32.173Z,25.15
2022-12-11T14:43:36.810Z,26.00
2022-12-11T14:48:45.147Z,27.58
2022-12-11T14:53:52.994Z,28.55
2022-12-11T14:59:02.885Z,29.30
2022-12-11T15:04:16.857Z,24.45
2022-12-11T15:09:21.951Z,23.88
2022-12-11T15:14:30.264Z,24.38
2022-12-11T15:19:35.847Z,24.55
2022-12-11T15:24:41.595Z,25.60
2022-12-11T15:29:45.423Z,23.40
2022-12-11T15:34:51.355Z,25.05
2022-12-11T15:39:58.303Z,27.17
2022-12-11T15:45:02.671Z,27.70
2022-12-11T15:50:17.015Z,31.77
2022-12-11T15:55:20.715Z,27.13
2022-12-11T16:00:24.757Z,20.35
2022-12-11T16:05:29.959Z,24.85
2022-12-11T16:10:34.000Z,31.35
2022-12-11T16:15:39.500Z,20.73
2022-12-11T16:20:45.526Z,29.15
2022-12-11T16:25:49.226Z,33.17
2022-12-11T16:30:52.637Z,32.05
2022-12-11T16:35:59.377Z,30.67
2022-12-11T16:41:03.208Z,31.42
2022-12-11T16:46:07.785Z,26.33
2022-12-11T16:51:13.191Z,27.30
2022-12-11T16:56:20.157Z,27.70
2022-12-11T17:01:24.612Z,32.22
2022-12-11T17:06:31.637Z,32.50
2022-12-11T17:11:35.395Z,26.23
2022-12-11T17:16:46.106Z,29.70
2022-12-11T17:21:59.275Z,29.33
2022-12-11T17:27:03.563Z,34.30
2022-12-11T17:32:35.508Z,34.38
2022-12-11T17:37:47.909Z,33.90
2022-12-11T17:42:54.067Z,36.33
2022-12-11T17:47:57.697Z,29.20
2022-12-11T17:53:02.948Z,32.90
2022-12-11T17:58:06.413Z,32.45
2022-12-11T18:03:10.476Z,32.40
2022-12-11T18:08:15.646Z,32.03
2022-12-11T18:13:22.911Z,32.88
2022-12-11T18:18:27.720Z,38.05
2022-12-11T18:23:33.102Z,34.75
2022-12-11T18:28:37.908Z,31.52
2022-12-11T18:33:42.695Z,32.30
2022-12-11T18:38:48.355Z,33.08
2022-12-11T18:43:51.809Z,33.25
2022-12-11T18:48:58.019Z,31.90
2022-12-11T18:54:02.967Z,39.35
2022-12-11T18:59:06.438Z,33.28
2022-12-11T19:04:11.576Z,31.33
2022-12-11T19:09:17.073Z,32.35
2022-12-11T19:14:21.088Z,28.98
2022-12-11T19:19:24.460Z,34.40
2022-12-11T19:24:29.897Z,33.20
2022-12-11T19:29:34.787Z,38.47
2022-12-11T19:34:39.869Z,33.33
2022-12-11T19:39:44.950Z,35.25
2022-12-11T19:44:48.223Z,32.33
2022-12-11T19:49:53.886Z,32.00
2022-12-11T19:55:01.994Z,35.20
2022-12-11T20:00:08.245Z,31.55
2022-12-11T20:05:16.208Z,37.10
2022-12-11T20:10:23.629Z,33.58
2022-12-11T20:15:27.895Z,33.15
2022-12-11T20:20:32.890Z,35.10
2022-12-11T20:25:40.215Z,36.47
2022-12-11T20:30:44.326Z,38.58
2022-12-11T20:35:50.626Z,35.00
2022-12-11T20:40:55.658Z,46.40
2022-12-11T20:46:00.865Z,35.72
2022-12-11T20:51:06.417Z,34.97
2022-12-11T20:56:16.952Z,33.15
2022-12-11T21:01:21.899Z,38.90
2022-12-11T21:06:29.831Z,34.75
2022-12-11T21:11:37.326Z,33.65
2022-12-11T21:16:51.644Z,43.90
2022-12-11T21:21:57.737Z,38.25
2022-12-11T21:27:05.430Z,34.00
2022-12-11T21:32:10.909Z,37.85
2022-12-11T21:37:15.057Z,33.80
2022-12-11T21:42:21.640Z,36.88
2022-12-11T21:47:25.049Z,40.00
2022-12-11T21:52:29.456Z,42.10
2022-12-11T21:57:35.042Z,31.35
2022-12-11T22:02:41.051Z,36.92
2022-12-11T22:07:46.842Z,40.35
2022-12-11T22:12:56.095Z,37.78
2022-12-11T22:23:12.784Z,39.28
2022-12-11T22:28:17.613Z,37.65
2022-12-11T22:33:20.873Z,39.17
2022-12-11T22:38:24.841Z,33.42
2022-12-11T22:43:29.899Z,41.28
2022-12-11T22:48:33.226Z,39.85
2022-12-11T22:53:36.951Z,42.03
2022-12-11T22:58:42.607Z,37.25
2022-12-11T23:03:47.704Z,34.85
2022-12-11T23:08:52.912Z,33.67
2022-12-11T23:13:59.483Z,38.45
2022-12-11T23:19:03.215Z,35.78
2022-12-11T23:24:06.920Z,36.08
2022-12-11T23:29:11.927Z,35.75
2022-12-11T23:34:15.622Z,32.80
2022-12-11T23:39:19.327Z,35.25
2022-12-11T23:44:29.756Z,32.17
2022-12-11T23:49:33.125Z,29.63
2022-12-11T23:54:37.073Z,30.45
2022-12-11T23:59:42.477Z,30.50
